Time;durP1;ratioP1;P1;durP2;ratioP2;P2;SDS_P1;SDS_P2;PMS_P1;PMS_P2;Temp;Humidity;BMP_temperature;BMP_pressure;BME280_temperature;BME280_humidity;BME280_pressure;Samples;Min_cycle;Max_cycle;Signal;HPM_P1;HPM_P2
2023/10/17 00:00:46;;;;;;;2.40;1.10;;;16.10;65.70;;;;;;5017634;28;20394;-47
2023/10/17 00:03:14;;;;;;;1.30;1.10;;;16.10;65.70;;;;;;5011989;28;20037;-47
2023/10/17 00:05:41;;;;;;;2.75;1.83;;;16.00;65.60;;;;;;5012648;28;20099;-53
2023/10/17 00:08:09;;;;;;;1.92;1.30;;;16.00;65.70;;;;;;5017939;28;20506;-51
2023/10/17 00:10:36;;;;;;;1.23;1.05;;;16.10;65.70;;;;;;5016982;28;20398;-49
2023/10/17 00:13:31;;;;;;;2.42;1.10;;;16.10;65.70;;;;;;5018202;28;20030;-50
2023/10/17 00:15:58;;;;;;;2.53;1.10;;;16.00;65.60;;;;;;5016946;28;20033;-52
2023/10/17 00:18:25;;;;;;;1.73;0.85;;;16.10;65.70;;;;;;5017972;28;20550;-51
2023/10/17 00:20:53;;;;;;;1.85;1.05;;;16.00;65.60;;;;;;5014997;28;20034;-50
2023/10/17 00:23:22;;;;;;;1.70;1.50;;;16.10;65.70;;;;;;5017624;28;20087;-46
2023/10/17 00:25:52;;;;;;;1.63;0.98;;;16.00;65.60;;;;;;5019023;28;20514;-49
2023/10/17 00:28:20;;;;;;;2.03;1.40;;;16.10;65.70;;;;;;5016625;28;20129;-49
2023/10/17 00:30:48;;;;;;;2.80;1.00;;;16.00;65.70;;;;;;5015867;28;20053;-46
2023/10/17 00:33:15;;;;;;;2.10;1.13;;;16.00;65.70;;;;;;5018595;28;20050;-47
2023/10/17 00:35:48;;;;;;;1.73;0.98;;;16.10;65.70;;;;;;5013963;28;20096;-50
2023/10/17 00:38:15;;;;;;;1.23;1.00;;;16.00;65.60;;;;;;5018285;28;20034;-47
2023/10/17 00:41:03;;;;;;;1.50;1.10;;;16.10;65.70;;;;;;5018783;28;20117;-48
2023/10/17 00:43:30;;;;;;;1.85;0.90;;;16.00;65.70;;;;;;5014748;28;20041;-48
2023/10/17 00:45:55;;;;;;;1.42;1.00;;;16.00;65.70;;;;;;4994921;28;20069;-50
2023/10/17 00:48:27;;;;;;;4.68;1.08;;;16.00;65.70;;;;;;5019001;28;20046;-50
2023/10/17 00:51:12;;;;;;;1.48;1.25;;;16.00;65.70;;;;;;5016061;28;20088;-49
2023/10/17 00:53:39;;;;;;;2.00;1.30;;;16.00;65.60;;;;;;5016980;28;20503;-47
2023/10/17 00:56:07;;;;;;;2.08;1.05;;;16.00;65.70;;;;;;5017146;28;20045;-47
2023/10/17 00:58:34;;;;;;;1.27;0.98;;;16.00;65.70;;;;;;5020040;28;20047;-47
2023/10/17 01:01:16;;;;;;;1.25;1.10;;;16.00;65.70;;;;;;5023118;28;20030;-46
2023/10/17 01:03:45;;;;;;;1.08;0.98;;;16.00;65.70;;;;;;5021314;28;20407;-50
2023/10/17 01:06:24;;;;;;;1.42;0.98;;;16.00;65.70;;;;;;5021737;28;20033;-52
2023/10/17 01:08:50;;;;;;;1.20;0.77;;;16.00;65.70;;;;;;5022400;28;21504;-47
2023/10/17 01:11:23;;;;;;;1.25;1.00;;;16.00;65.70;;;;;;5022201;28;20642;-46
2023/10/17 01:13:55;;;;;;;1.45;0.90;;;16.00;65.60;;;;;;5021498;28;20040;-50
2023/10/17 01:16:22;;;;;;;1.40;1.00;;;16.00;65.70;;;;;;5018371;28;20112;-53
2023/10/17 01:18:47;;;;;;;1.13;0.93;;;16.00;65.70;;;;;;5018114;28;20034;-46
2023/10/17 01:21:18;;;;;;;2.00;0.98;;;16.00;65.70;;;;;;5021790;28;20040;-49
2023/10/17 01:27:06;;;;;;;2.35;1.00;;;16.00;65.70;;;;;;5018052;28;20052;-46
2023/10/17 01:29:32;;;;;;;1.50;1.00;;;16.00;65.70;;;;;;5021494;28;20105;-50
2023/10/17 01:31:59;;;;;;;0.80;0.80;;;16.00;65.70;;;;;;5019724;28;20034;-48
2023/10/17 01:34:25;;;;;;;4.40;1.05;;;16.00;65.60;;;;;;5018872;28;20032;-49
2023/10/17 01:36:50;;;;;;;2.83;1.55;;;16.00;65.70;;;;;;5020720;28;20037;-49
2023/10/17 01:39:16;;;;;;;2.45;0.98;;;16.00;65.70;;;;;;5018411;28;20033;-47
2023/10/17 01:41:46;;;;;;;2.13;1.20;;;16.00;65.60;;;;;;5019078;28;20030;-48
2023/10/17 01:44:12;;;;;;;1.90;1.10;;;16.00;65.70;;;;;;5018243;28;20040;-46
2023/10/17 01:46:38;;;;;;;0.95;0.95;;;16.00;65.70;;;;;;5018071;28;20037;-46
2023/10/17 01:49:10;;;;;;;1.98;1.05;;;16.00;65.70;;;;;;5020721;28;20114;-45
2023/10/17 01:51:36;;;;;;;1.20;1.10;;;16.00;65.70;;;;;;5017939;28;20444;-49
2023/10/17 01:54:11;;;;;;;1.20;0.90;;;16.00;65.70;;;;;;5016854;28;20037;-47
2023/10/17 01:56:40;;;;;;;1.23;0.80;;;16.00;65.60;;;;;;5017556;28;20111;-49
2023/10/17 01:59:23;;;;;;;1.42;1.02;;;16.00;65.60;;;;;;5020789;28;20035;-49
2023/10/17 02:01:48;;;;;;;1.42;1.00;;;16.00;65.60;;;;;;5019906;28;20032;-47
2023/10/17 02:04:18;;;;;;;1.38;0.90;;;16.00;65.60;;;;;;5016709;28;20033;-47
2023/10/17 02:06:44;;;;;;;2.40;1.52;;;16.00;65.60;;;;;;5018980;28;21226;-47
2023/10/17 02:09:44;;;;;;;1.25;0.90;;;16.00;65.60;;;;;;5019448;28;20030;-50
2023/10/17 02:12:12;;;;;;;1.40;0.90;;;16.00;65.60;;;;;;5019996;28;20121;-47
2023/10/17 02:14:41;;;;;;;0.95;0.77;;;16.00;65.60;;;;;;5018574;28;20669;-50
2023/10/17 02:17:09;;;;;;;2.20;0.93;;;16.00;65.60;;;;;;5020209;28;20100;-50
2023/10/17 02:19:38;;;;;;;1.20;1.10;;;15.90;65.50;;;;;;5018950;28;20033;-47
2023/10/17 02:22:09;;;;;;;1.33;1.13;;;16.00;65.60;;;;;;5019771;28;20041;-51
2023/10/17 02:24:36;;;;;;;1.45;0.70;;;16.00;65.60;;;;;;5014853;28;20626;-46
2023/10/17 02:27:07;;;;;;;1.27;0.80;;;16.00;65.60;;;;;;5015972;28;20560;-51
2023/10/17 02:29:38;;;;;;;1.70;0.95;;;16.00;65.60;;;;;;5020353;28;20097;-46
2023/10/17 02:32:05;;;;;;;1.73;0.82;;;16.00;65.60;;;;;;5018250;28;20104;-48
2023/10/17 02:34:31;;;;;;;1.33;0.80;;;16.00;65.60;;;;;;5016508;28;20025;-53
2023/10/17 02:37:00;;;;;;;1.88;0.90;;;16.00;65.60;;;;;;5020685;28;20395;-48
2023/10/17 02:39:25;;;;;;;1.50;0.70;;;16.00;65.50;;;;;;5020160;28;20135;-46
2023/10/17 02:41:58;;;;;;;1.27;0.73;;;15.90;65.50;;;;;;5019635;28;20124;-46
2023/10/17 02:44:24;;;;;;;1.15;0.80;;;15.90;65.50;;;;;;5016805;28;20022;-47
2023/10/17 02:46:50;;;;;;;0.88;0.70;;;16.00;65.60;;;;;;5020397;28;20113;-52
2023/10/17 02:49:16;;;;;;;2.10;1.00;;;15.90;65.50;;;;;;5018920;28;20047;-46
2023/10/17 02:51:42;;;;;;;1.58;0.70;;;16.00;65.60;;;;;;5018243;28;20048;-45
2023/10/17 02:54:16;;;;;;;1.00;0.90;;;15.90;65.60;;;;;;5018954;28;20042;-47
2023/10/17 02:56:51;;;;;;;1.05;0.70;;;15.90;65.60;;;;;;5017219;28;20217;-47
2023/10/17 02:59:17;;;;;;;1.02;0.82;;;16.00;65.60;;;;;;5017626;28;20045;-49
2023/10/17 03:01:43;;;;;;;1.42;1.00;;;15.90;65.60;;;;;;5018915;28;20029;-49
2023/10/17 03:04:13;;;;;;;1.50;0.90;;;15.90;65.50;;;;;;5019784;28;20079;-50
2023/10/17 03:06:43;;;;;;;0.77;0.70;;;15.90;65.50;;;;;;5018348;28;20120;-51
2023/10/17 03:11:51;;;;;;;1.10;0.70;;;15.90;65.50;;;;;;5017244;28;20029;-52
2023/10/17 03:14:22;;;;;;;0.70;0.60;;;15.90;65.50;;;;;;5021805;28;20049;-48
2023/10/17 03:16:54;;;;;;;1.13;0.82;;;15.90;65.50;;;;;;5021343;28;20103;-48
2023/10/17 03:19:25;;;;;;;1.10;0.98;;;15.90;65.50;;;;;;5020713;28;20064;-48
2023/10/17 03:21:53;;;;;;;1.40;0.70;;;15.90;65.50;;;;;;5019393;28;20047;-48
2023/10/17 03:24:19;;;;;;;1.17;0.80;;;15.90;65.50;;;;;;5016824;28;20392;-47
2023/10/17 03:26:54;;;;;;;0.85;0.60;;;15.90;65.50;;;;;;5016027;28;20422;-49
2023/10/17 03:29:23;;;;;;;2.25;0.77;;;15.90;65.50;;;;;;5016582;28;20139;-48
2023/10/17 03:31:53;;;;;;;1.05;0.77;;;15.90;65.50;;;;;;5014638;28;20038;-49
2023/10/17 03:34:29;;;;;;;1.05;0.85;;;15.90;65.50;;;;;;5017861;28;20053;-47
2023/10/17 03:36:55;;;;;;;1.08;0.90;;;15.90;65.50;;;;;;5018758;28;20479;-47
2023/10/17 03:39:28;;;;;;;1.85;0.80;;;15.90;65.50;;;;;;5016854;28;20036;-47
2023/10/17 03:41:56;;;;;;;0.95;0.60;;;15.90;65.40;;;;;;5014327;28;20034;-47
2023/10/17 03:44:29;;;;;;;1.30;1.10;;;15.90;65.50;;;;;;5018010;28;20060;-46
2023/10/17 03:46:59;;;;;;;0.80;0.70;;;15.90;65.50;;;;;;5019726;28;20697;-48
2023/10/17 03:49:25;;;;;;;1.20;0.90;;;15.90;65.50;;;;;;5017777;28;20022;-46
2023/10/17 03:51:54;;;;;;;1.02;0.80;;;15.90;65.60;;;;;;5015995;28;20040;-48
2023/10/17 03:54:22;;;;;;;1.17;0.90;;;15.90;65.50;;;;;;5017832;28;20025;-49
2023/10/17 03:57:02;;;;;;;1.77;1.08;;;15.90;65.50;;;;;;5018351;28;20036;-48
2023/10/17 03:59:41;;;;;;;0.88;0.70;;;15.90;65.40;;;;;;5018990;28;20414;-47
2023/10/17 04:02:18;;;;;;;0.73;0.63;;;15.90;65.50;;;;;;5015900;28;20102;-48
2023/10/17 04:04:54;;;;;;;1.33;0.80;;;15.90;65.50;;;;;;5015772;28;20895;-48
2023/10/17 04:07:22;;;;;;;2.15;0.80;;;15.90;65.50;;;;;;5017419;28;20030;-47
2023/10/17 04:12:37;;;;;;;0.77;0.65;;;15.90;65.50;;;;;;5018452;28;20100;-46
2023/10/17 04:15:07;;;;;;;0.90;0.60;;;15.80;65.40;;;;;;5017325;28;21459;-48
2023/10/17 04:17:36;;;;;;;1.80;0.80;;;15.90;65.60;;;;;;5017286;28;20025;-49
2023/10/17 04:20:16;;;;;;;1.02;0.68;;;15.90;65.50;;;;;;5018438;28;20114;-48
2023/10/17 04:22:45;;;;;;;1.48;0.82;;;15.80;65.50;;;;;;5016807;28;20129;-47
2023/10/17 04:25:32;;;;;;;2.25;0.90;;;15.80;65.50;;;;;;5016889;28;20033;-47
2023/10/17 04:28:01;;;;;;;0.65;0.60;;;15.80;65.50;;;;;;5017474;28;20029;-47
2023/10/17 04:30:34;;;;;;;1.30;1.00;;;15.80;65.40;;;;;;5021747;28;20032;-47
2023/10/17 04:33:09;;;;;;;0.65;0.65;;;15.80;65.40;;;;;;5022011;28;20026;-46
2023/10/17 04:35:35;;;;;;;1.35;0.80;;;15.80;65.40;;;;;;5022166;28;20522;-49
2023/10/17 04:38:19;;;;;;;1.73;0.98;;;15.80;65.40;;;;;;5021865;28;20522;-52
2023/10/17 04:40:54;;;;;;;1.13;0.70;;;15.80;65.50;;;;;;5020182;28;20535;-52
2023/10/17 04:46:08;;;;;;;2.67;0.95;;;15.80;65.50;;;;;;5019530;28;20073;-51
2023/10/17 04:48:36;;;;;;;0.82;0.73;;;15.80;65.50;;;;;;5020642;28;20084;-47
2023/10/17 04:51:38;;;;;;;0.88;0.77;;;15.80;65.50;;;;;;5020232;28;20180;-48
2023/10/17 04:54:03;;;;;;;0.77;0.77;;;15.80;65.50;;;;;;5017646;28;20065;-48
2023/10/17 04:56:52;;;;;;;0.90;0.60;;;15.80;65.50;;;;;;5020492;28;20075;-51
2023/10/17 04:59:27;;;;;;;1.30;0.80;;;15.80;65.40;;;;;;5021125;28;20030;-46
2023/10/17 05:02:13;;;;;;;1.60;0.93;;;15.80;65.40;;;;;;5020713;28;20045;-53
2023/10/17 05:05:38;;;;;;;1.42;1.10;;;15.80;65.40;;;;;;5020148;28;20053;-47
2023/10/17 06:18:32;;;;;;;3.67;2.33;;;15.30;63.90;;;;;;5018635;28;20171;-49
2023/10/17 06:21:06;;;;;;;2.95;2.25;;;15.30;63.90;;;;;;5018786;28;20497;-51
2023/10/17 06:34:34;;;;;;;6.45;2.63;;;15.20;64.20;;;;;;5018318;28;20052;-48
2023/10/17 06:37:07;;;;;;;5.93;3.58;;;15.30;64.30;;;;;;5020045;28;20052;-52
2023/10/17 06:39:45;;;;;;;6.95;3.38;;;15.20;64.20;;;;;;5018288;28;20034;-48
2023/10/17 06:42:27;;;;;;;6.90;3.65;;;15.30;64.10;;;;;;5016528;28;20040;-49
2023/10/17 06:45:07;;;;;;;8.18;3.83;;;15.20;64.40;;;;;;5015081;28;20026;-48
2023/10/17 06:47:42;;;;;;;7.88;4.60;;;15.30;64.50;;;;;;5018569;28;20029;-46
2023/10/17 06:58:09;;;;;;;6.38;3.88;;;15.40;64.80;;;;;;5015111;28;20040;-50
2023/10/17 07:00:59;;;;;;;7.35;3.88;;;15.40;64.50;;;;;;5021383;28;20051;-52
2023/10/17 07:03:25;;;;;;;6.60;3.60;;;15.40;64.30;;;;;;5019754;28;20022;-46
2023/10/17 07:05:51;;;;;;;6.90;3.03;;;15.40;64.70;;;;;;4993098;28;20038;-49
2023/10/17 07:08:19;;;;;;;10.30;3.53;;;15.40;64.90;;;;;;4988886;28;20036;-53
2023/10/17 07:16:33;;;;;;;5.55;3.38;;;15.40;64.40;;;;;;5019055;28;20043;-45
2023/10/17 07:24:26;;;;;;;5.22;2.60;;;15.30;64.00;;;;;;5018476;28;20087;-54
2023/10/17 07:26:52;;;;;;;5.85;2.25;;;15.30;63.90;;;;;;5016549;28;20042;-51
2023/10/17 07:29:24;;;;;;;6.18;2.95;;;15.30;64.30;;;;;;5018612;28;20133;-50
2023/10/17 07:31:54;;;;;;;5.25;2.45;;;15.30;64.50;;;;;;5018351;28;20111;-50
2023/10/17 07:34:23;;;;;;;6.25;3.00;;;15.30;64.40;;;;;;5015583;28;20091;-51
2023/10/17 07:37:05;;;;;;;4.60;2.53;;;15.30;64.10;;;;;;5016855;28;20112;-48
2023/10/17 07:39:36;;;;;;;5.63;2.95;;;15.30;64.80;;;;;;5019672;28;20044;-48
2023/10/17 07:42:23;;;;;;;4.30;2.47;;;15.30;64.70;;;;;;5011797;28;20388;-49
2023/10/17 07:44:49;;;;;;;3.92;2.50;;;15.30;63.90;;;;;;5018490;28;20505;-50
2023/10/17 07:47:21;;;;;;;6.75;2.60;;;15.30;63.70;;;;;;5017521;28;20030;-50
2023/10/17 07:49:50;;;;;;;5.82;2.63;;;15.30;64.00;;;;;;5016247;28;20634;-51
2023/10/17 07:52:16;;;;;;;4.50;2.40;;;15.30;64.20;;;;;;5017237;28;20394;-49
2023/10/17 07:54:46;;;;;;;3.05;2.17;;;15.30;63.70;;;;;;5011543;28;20050;-47
2023/10/17 07:57:18;;;;;;;4.35;2.30;;;15.30;64.20;;;;;;5012411;28;20188;-47
2023/10/17 07:59:52;;;;;;;3.47;2.20;;;15.30;63.60;;;;;;5018061;28;20025;-49
2023/10/17 08:02:20;;;;;;;3.85;2.45;;;15.30;64.00;;;;;;5016035;28;20052;-47
2023/10/17 08:04:48;;;;;;;2.85;2.05;;;15.30;63.70;;;;;;5017765;28;20026;-49
2023/10/17 08:07:14;;;;;;;6.60;2.42;;;15.30;64.20;;;;;;5015837;28;20045;-46
2023/10/17 08:09:56;;;;;;;4.05;2.30;;;15.30;64.40;;;;;;5018816;28;20041;-50
2023/10/17 08:12:29;;;;;;;3.75;2.10;;;15.40;64.10;;;;;;5017522;28;20029;-51
2023/10/17 08:14:58;;;;;;;4.82;2.45;;;15.40;63.40;;;;;;5018616;28;20114;-47
2023/10/17 08:17:34;;;;;;;5.78;2.42;;;15.40;63.30;;;;;;5010735;28;20034;-46
2023/10/17 08:20:00;;;;;;;4.03;1.85;;;15.40;63.60;;;;;;5013274;28;20030;-52
2023/10/17 08:22:27;;;;;;;4.70;2.40;;;15.40;64.20;;;;;;5018053;28;20033;-51
2023/10/17 08:24:53;;;;;;;4.20;2.75;;;15.40;63.50;;;;;;5017816;28;20033;-46
2023/10/17 08:29:49;;;;;;;3.72;2.00;;;15.40;64.30;;;;;;5019226;28;20022;-45
2023/10/17 08:34:48;;;;;;;2.15;1.70;;;15.40;63.90;;;;;;5017450;28;20479;-51
2023/10/17 08:37:27;;;;;;;4.68;2.10;;;15.40;63.20;;;;;;5017594;28;20060;-48
2023/10/17 08:39:52;;;;;;;2.67;2.13;;;15.40;64.00;;;;;;5017513;28;20479;-48
2023/10/17 08:45:00;;;;;;;2.58;2.00;;;15.40;64.00;;;;;;5017252;28;20017;-46
2023/10/17 08:47:30;;;;;;;3.92;2.33;;;15.40;63.20;;;;;;5018317;28;20045;-46
2023/10/17 08:50:00;;;;;;;5.90;2.00;;;15.40;63.60;;;;;;5018539;28;20478;-49
2023/10/17 08:52:27;;;;;;;4.00;1.98;;;15.40;64.10;;;;;;5014421;28;20061;-47
2023/10/17 08:54:53;;;;;;;3.50;1.83;;;15.40;63.90;;;;;;5017859;28;20064;-49
2023/10/17 08:57:20;;;;;;;5.20;2.10;;;15.40;64.10;;;;;;5018701;28;20025;-47
2023/10/17 09:02:28;;;;;;;3.25;1.95;;;15.40;63.80;;;;;;5018098;28;20034;-46
2023/10/17 09:05:06;;;;;;;5.03;2.20;;;15.40;63.40;;;;;;5018442;28;20398;-51
2023/10/17 09:07:32;;;;;;;2.30;2.10;;;15.40;63.20;;;;;;5017901;28;20060;-47
2023/10/17 09:10:15;;;;;;;4.13;2.38;;;15.30;63.30;;;;;;5019352;28;20697;-47
2023/10/17 09:13:14;;;;;;;3.15;1.77;;;15.30;63.10;;;;;;5003643;28;20601;-46
2023/10/17 09:15:35;;;;;;;5.85;2.83;;;15.30;64.40;;;;;;5018046;28;20053;-46
2023/10/17 09:18:07;;;;;;;5.00;2.28;;;15.30;62.20;;;;;;5022150;28;20032;-48
2023/10/17 09:20:37;;;;;;;4.30;2.28;;;15.30;63.40;;;;;;5019366;28;20048;-49
2023/10/17 09:23:04;;;;;;;5.25;2.78;;;15.20;63.00;;;;;;5021145;28;20025;-53
2023/10/17 09:25:30;;;;;;;3.97;2.10;;;15.30;63.80;;;;;;5022028;28;20033;-47
2023/10/17 09:27:57;;;;;;;3.75;2.20;;;15.30;62.60;;;;;;5023157;28;20033;-47
2023/10/17 09:30:26;;;;;;;3.47;2.15;;;15.30;62.80;;;;;;5018539;28;20154;-48
2023/10/17 09:32:52;;;;;;;3.13;2.45;;;15.30;62.90;;;;;;5020716;28;20512;-48
2023/10/17 09:35:18;;;;;;;2.70;1.98;;;15.40;64.00;;;;;;5019260;28;20041;-48
2023/10/17 09:37:56;;;;;;;3.33;1.67;;;15.40;64.00;;;;;;5020429;28;20026;-49
2023/10/17 09:40:27;;;;;;;2.85;2.10;;;15.50;64.40;;;;;;5015453;28;20507;-50
2023/10/17 09:42:53;;;;;;;4.75;1.73;;;15.60;63.60;;;;;;5020635;28;20297;-48
2023/10/17 09:45:19;;;;;;;3.58;1.60;;;15.60;64.30;;;;;;5015901;28;20168;-47
2023/10/17 09:47:50;;;;;;;4.70;1.85;;;15.60;64.50;;;;;;5020186;28;20041;-47
2023/10/17 09:52:53;;;;;;;4.10;1.90;;;15.70;64.60;;;;;;4999829;28;20507;-48
2023/10/17 09:55:23;;;;;;;6.03;2.10;;;15.70;64.60;;;;;;4995629;28;20069;-49
2023/10/17 09:57:55;;;;;;;6.82;1.77;;;15.70;64.70;;;;;;4997108;28;20036;-48
2023/10/17 10:00:41;;;;;;;2.60;1.75;;;15.80;64.80;;;;;;4975362;28;20053;-47
2023/10/17 10:03:08;;;;;;;3.00;1.52;;;15.80;64.60;;;;;;5001700;28;20064;-47
2023/10/17 10:05:34;;;;;;;4.80;1.80;;;15.70;62.00;;;;;;4996511;28;20376;-47
2023/10/17 10:08:04;;;;;;;2.97;1.75;;;15.70;63.30;;;;;;4996771;28;20033;-48
2023/10/17 10:10:42;;;;;;;2.83;1.95;;;15.60;64.30;;;;;;4979810;28;20151;-46
2023/10/17 10:13:13;;;;;;;2.90;1.88;;;15.70;64.30;;;;;;4994320;28;20022;-48
2023/10/17 10:15:55;;;;;;;4.20;1.85;;;15.70;64.00;;;;;;4996608;28;20030;-47
2023/10/17 10:18:35;;;;;;;2.92;1.90;;;15.70;64.30;;;;;;4998036;28;20030;-47
2023/10/17 10:21:05;;;;;;;2.95;1.50;;;15.80;63.60;;;;;;4998848;28;20034;-50
2023/10/17 10:23:41;;;;;;;2.78;1.73;;;15.70;63.40;;;;;;4997945;28;20038;-48
2023/10/17 10:26:14;;;;;;;2.55;2.00;;;15.70;64.30;;;;;;4999325;28;20054;-47
2023/10/17 10:28:41;;;;;;;2.50;1.75;;;15.70;64.30;;;;;;4983342;28;20042;-48
2023/10/17 10:31:33;;;;;;;3.05;1.75;;;15.80;64.30;;;;;;4994223;28;20414;-48
2023/10/17 10:33:58;;;;;;;8.65;1.63;;;15.80;64.20;;;;;;4989762;28;20033;-46
2023/10/17 10:36:24;;;;;;;2.70;1.48;;;15.80;64.30;;;;;;4995114;28;20299;-47
2023/10/17 10:38:53;;;;;;;2.42;1.60;;;15.80;64.30;;;;;;4993390;28;20045;-46
2023/10/17 10:41:19;;;;;;;4.63;2.15;;;15.80;64.20;;;;;;4989953;28;20041;-46
2023/10/17 10:43:46;;;;;;;2.72;2.10;;;15.80;63.40;;;;;;4998064;28;20084;-50
2023/10/17 10:46:14;;;;;;;3.13;1.77;;;15.70;62.30;;;;;;4986680;28;20045;-50
2023/10/17 10:48:47;;;;;;;3.53;1.50;;;15.70;64.10;;;;;;4977974;28;20120;-47
2023/10/17 10:51:16;;;;;;;2.30;1.85;;;15.80;64.20;;;;;;4989915;28;20033;-49
2023/10/17 10:53:44;;;;;;;3.60;1.65;;;15.80;64.30;;;;;;4996510;28;20038;-49
2023/10/17 10:56:11;;;;;;;3.03;1.77;;;15.80;64.30;;;;;;4996520;28;20068;-50
2023/10/17 10:58:55;;;;;;;3.38;2.17;;;15.80;63.70;;;;;;4994423;28;20037;-48
2023/10/17 11:01:21;;;;;;;3.75;1.23;;;15.80;64.10;;;;;;4992850;28;20034;-49
2023/10/17 11:03:48;;;;;;;3.45;1.90;;;15.80;64.00;;;;;;4996267;28;20563;-48
2023/10/17 11:06:19;;;;;;;4.88;2.05;;;15.80;64.00;;;;;;4991733;28;20034;-52
2023/10/17 11:08:46;;;;;;;3.58;1.83;;;15.80;64.20;;;;;;4995040;28;20117;-46
2023/10/17 11:11:15;;;;;;;2.60;1.60;;;15.90;64.20;;;;;;4995549;28;20029;-47
2023/10/17 11:13:46;;;;;;;3.17;1.73;;;15.80;64.00;;;;;;4996993;28;20026;-47
2023/10/17 11:16:14;;;;;;;1.90;1.45;;;15.80;64.00;;;;;;4998495;28;20029;-48
2023/10/17 11:18:44;;;;;;;2.85;1.85;;;15.80;64.10;;;;;;4985293;28;20408;-47
2023/10/17 11:21:13;;;;;;;2.08;1.38;;;15.70;64.00;;;;;;4997623;28;20037;-46
2023/10/17 11:23:43;;;;;;;4.10;1.60;;;15.80;64.30;;;;;;4979134;28;20092;-48
2023/10/17 11:26:12;;;;;;;2.10;1.73;;;15.80;64.20;;;;;;4993324;28;20048;-49
2023/10/17 11:28:42;;;;;;;4.40;1.70;;;15.80;64.00;;;;;;5001016;28;20030;-48
2023/10/17 11:31:24;;;;;;;2.00;1.30;;;15.80;62.50;;;;;;4991932;28;20041;-44
2023/10/17 11:34:04;;;;;;;1.45;1.10;;;15.80;64.10;;;;;;4994913;28;20037;-46
2023/10/17 11:36:45;;;;;;;2.83;1.42;;;15.80;64.10;;;;;;4991549;28;20507;-46
2023/10/17 11:39:15;;;;;;;1.42;1.27;;;15.90;64.10;;;;;;4994369;28;20445;-51
2023/10/17 11:41:47;;;;;;;3.17;1.48;;;15.80;64.00;;;;;;4981405;28;20088;-51
2023/10/17 11:44:15;;;;;;;1.98;1.45;;;15.90;64.10;;;;;;4995694;28;20116;-49
2023/10/17 11:46:55;;;;;;;2.42;1.30;;;15.90;64.10;;;;;;4995068;28;20046;-48
2023/10/17 11:49:26;;;;;;;2.42;1.25;;;15.90;64.10;;;;;;4994885;28;20132;-51
2023/10/17 11:52:00;;;;;;;1.77;1.25;;;15.90;64.10;;;;;;4996098;28;20049;-48
2023/10/17 11:54:26;;;;;;;1.30;1.08;;;15.90;64.10;;;;;;4983215;28;20038;-46
2023/10/17 11:56:54;;;;;;;2.55;1.40;;;15.90;64.10;;;;;;4980489;28;20042;-46
2023/10/17 11:59:20;;;;;;;1.65;1.17;;;15.90;64.00;;;;;;4998161;28;20042;-48
2023/10/17 12:01:47;;;;;;;3.55;1.50;;;15.90;64.00;;;;;;4997016;28;20038;-46
2023/10/17 12:04:16;;;;;;;3.22;1.30;;;15.90;63.80;;;;;;4990779;28;20510;-46
2023/10/17 12:06:44;;;;;;;2.03;1.30;;;15.90;63.20;;;;;;4996447;28;20121;-48
2023/10/17 12:11:51;;;;;;;2.53;1.45;;;15.90;64.00;;;;;;4999326;28;20029;-46
2023/10/17 12:14:21;;;;;;;3.22;1.52;;;15.90;62.70;;;;;;4995182;28;20034;-50
2023/10/17 12:16:53;;;;;;;2.22;1.25;;;15.90;63.80;;;;;;4996400;28;20109;-48
2023/10/17 12:19:26;;;;;;;1.73;1.40;;;16.00;63.90;;;;;;4999019;28;20034;-51
2023/10/17 12:22:00;;;;;;;3.08;1.50;;;15.90;63.40;;;;;;4999429;28;20038;-49
2023/10/17 12:24:28;;;;;;;1.92;1.20;;;15.90;63.80;;;;;;4996985;28;20037;-49
2023/10/17 12:26:57;;;;;;;2.65;1.00;;;15.90;63.90;;;;;;4995625;28;20112;-46
2023/10/17 12:29:29;;;;;;;2.83;1.83;;;15.90;63.60;;;;;;4995997;28;20050;-49
2023/10/17 12:31:57;;;;;;;1.65;1.05;;;15.90;63.60;;;;;;4996896;28;20195;-50
2023/10/17 12:34:23;;;;;;;2.05;0.98;;;16.00;63.80;;;;;;4995570;28;20400;-47
2023/10/17 12:36:49;;;;;;;1.65;0.82;;;15.90;63.80;;;;;;4996212;28;20036;-45
2023/10/17 12:39:17;;;;;;;2.30;1.20;;;16.00;63.70;;;;;;4977565;28;20034;-48
2023/10/17 12:41:45;;;;;;;1.98;1.10;;;15.90;63.20;;;;;;4995382;28;20036;-49
2023/10/17 12:44:12;;;;;;;1.08;0.88;;;15.90;63.20;;;;;;4996995;28;20061;-49
2023/10/17 12:46:37;;;;;;;2.20;0.90;;;15.90;63.70;;;;;;4992069;28;20041;-48
2023/10/17 12:49:03;;;;;;;1.38;0.90;;;15.90;63.70;;;;;;4996321;28;20041;-47
2023/10/17 12:51:28;;;;;;;2.28;0.82;;;16.00;63.80;;;;;;5000231;28;20037;-48
2023/10/17 12:53:54;;;;;;;1.70;1.10;;;16.00;63.80;;;;;;4994014;28;20029;-49
2023/10/17 12:56:20;;;;;;;1.48;0.93;;;15.90;63.50;;;;;;4999298;28;20395;-48
2023/10/17 12:58:47;;;;;;;1.30;1.20;;;15.90;63.40;;;;;;4997150;28;20038;-51
2023/10/17 13:01:12;;;;;;;1.63;1.00;;;15.90;63.80;;;;;;4994477;28;20116;-51
2023/10/17 13:03:38;;;;;;;2.78;1.35;;;15.90;63.80;;;;;;4999775;28;20117;-49
2023/10/17 13:06:11;;;;;;;2.10;1.13;;;15.80;63.40;;;;;;4997690;28;20049;-50
2023/10/17 13:08:36;;;;;;;1.65;0.90;;;15.90;63.00;;;;;;4998986;28;20052;-48
2023/10/17 13:11:02;;;;;;;1.75;1.20;;;15.80;61.00;;;;;;4997981;28;20026;-51
2023/10/17 13:13:30;;;;;;;1.63;0.95;;;15.70;61.10;;;;;;4999366;28;20114;-47
2023/10/17 13:15:57;;;;;;;2.58;1.02;;;15.70;62.00;;;;;;4998227;28;21014;-50
2023/10/17 13:18:24;;;;;;;1.63;1.00;;;15.70;61.20;;;;;;5001428;28;20030;-52
2023/10/17 13:20:50;;;;;;;1.38;1.08;;;15.70;61.70;;;;;;5001124;28;20041;-49
2023/10/17 13:23:16;;;;;;;1.30;1.10;;;15.70;62.20;;;;;;5001795;28;20032;-48
2023/10/17 13:25:43;;;;;;;1.80;1.23;;;15.70;61.30;;;;;;5003211;28;20124;-48
2023/10/17 13:28:09;;;;;;;2.92;1.25;;;15.70;62.90;;;;;;5000173;28;25547;-47
2023/10/17 13:30:35;;;;;;;1.75;1.20;;;15.70;61.30;;;;;;4998449;28;20026;-49
2023/10/17 13:33:00;;;;;;;1.23;1.08;;;15.60;60.60;;;;;;5002611;28;20030;-48
2023/10/17 13:35:27;;;;;;;2.08;1.23;;;15.60;61.10;;;;;;5000340;28;20137;-49
2023/10/17 13:37:53;;;;;;;1.15;1.00;;;15.60;61.70;;;;;;4982215;28;20434;-48
2023/10/17 13:40:25;;;;;;;2.05;1.35;;;15.70;62.10;;;;;;4998324;28;20529;-51
2023/10/17 13:42:55;;;;;;;2.45;1.40;;;15.70;61.40;;;;;;4997269;28;20033;-49
2023/10/17 13:45:21;;;;;;;2.40;1.58;;;15.70;61.20;;;;;;4996904;28;20042;-49
2023/10/17 13:47:56;;;;;;;3.42;1.52;;;15.60;59.70;;;;;;5001489;28;20036;-47
2023/10/17 13:50:22;;;;;;;;;;;15.60;61.00;;;;;;4998526;28;20483;-49
2023/10/17 13:52:49;;;;;;;1.45;0.88;;;15.60;61.80;;;;;;5000323;28;19919;-47
2023/10/17 13:55:28;;;;;;;2.70;0.95;;;15.70;62.00;;;;;;4999260;28;20026;-49
2023/10/17 13:58:12;;;;;;;1.48;1.23;;;15.70;61.80;;;;;;4998379;28;20038;-46
2023/10/17 14:00:45;;;;;;;1.40;1.23;;;15.70;61.90;;;;;;4985575;28;20038;-46
2023/10/17 14:03:15;;;;;;;2.28;1.42;;;15.60;60.90;;;;;;4997391;28;20055;-49
2023/10/17 14:05:42;;;;;;;2.88;1.30;;;15.60;61.00;;;;;;4980130;28;20038;-47
2023/10/17 14:08:09;;;;;;;1.63;1.33;;;15.60;60.70;;;;;;4997770;28;20026;-49
2023/10/17 14:10:37;;;;;;;2.03;1.20;;;15.60;60.60;;;;;;4995624;28;20030;-50
2023/10/17 14:13:08;;;;;;;1.88;1.38;;;15.60;60.60;;;;;;4997759;28;20132;-47
2023/10/17 14:15:36;;;;;;;1.98;1.30;;;15.50;59.90;;;;;;4998427;28;20041;-52
2023/10/17 14:18:09;;;;;;;1.95;1.20;;;15.50;60.20;;;;;;5004102;28;20113;-46
2023/10/17 14:20:38;;;;;;;1.70;1.48;;;15.50;60.00;;;;;;4998430;28;20037;-49
2023/10/17 14:23:13;;;;;;;2.17;1.10;;;15.50;60.80;;;;;;5001748;28;20499;-47
2023/10/17 14:28:23;;;;;;;1.38;1.17;;;15.50;61.10;;;;;;4997940;28;20091;-51
2023/10/17 14:30:49;;;;;;;1.33;1.08;;;15.50;61.40;;;;;;5003469;28;20034;-47
2023/10/17 14:33:15;;;;;;;2.13;1.55;;;15.60;62.00;;;;;;4997833;28;20032;-47
2023/10/17 14:35:43;;;;;;;2.58;1.45;;;15.60;62.20;;;;;;4999371;28;20823;-47
2023/10/17 14:38:10;;;;;;;1.73;1.35;;;15.60;60.70;;;;;;4996568;28;20069;-47
2023/10/17 14:40:35;;;;;;;1.30;1.02;;;15.60;61.60;;;;;;4997162;28;20092;-46
2023/10/17 14:43:02;;;;;;;1.42;1.20;;;15.60;61.50;;;;;;4999046;28;20037;-46
2023/10/17 14:45:28;;;;;;;2.13;1.20;;;15.60;62.00;;;;;;4996658;28;20104;-46
2023/10/17 14:47:59;;;;;;;1.10;1.00;;;15.60;62.10;;;;;;5000780;28;20033;-46
2023/10/17 14:50:26;;;;;;;2.63;1.35;;;15.60;62.20;;;;;;4997197;28;20391;-48
2023/10/17 14:52:52;;;;;;;1.08;0.90;;;15.60;62.00;;;;;;4998265;28;20026;-48
2023/10/17 14:55:23;;;;;;;1.23;1.02;;;15.60;62.60;;;;;;5002315;28;20179;-46
2023/10/17 14:57:49;;;;;;;0.85;0.80;;;15.60;62.10;;;;;;4979159;28;20030;-49
2023/10/17 15:00:15;;;;;;;0.88;0.88;;;15.60;61.90;;;;;;4998465;28;21470;-47
2023/10/17 15:02:44;;;;;;;1.50;0.98;;;15.60;62.10;;;;;;4996066;28;20050;-50
2023/10/17 15:05:13;;;;;;;1.30;1.05;;;15.60;62.30;;;;;;4997759;28;20068;-47
2023/10/17 15:07:39;;;;;;;1.70;0.85;;;15.60;62.00;;;;;;4996344;28;20030;-47
2023/10/17 15:10:11;;;;;;;1.30;1.20;;;15.60;61.30;;;;;;4995772;28;20104;-48
2023/10/17 15:12:39;;;;;;;1.17;1.00;;;15.50;61.80;;;;;;4997751;28;20026;-50
2023/10/17 15:15:05;;;;;;;1.25;1.00;;;15.50;62.10;;;;;;5001124;28;20080;-50